Time;durP1;ratioP1;P1;durP2;ratioP2;P2;SDS_P1;SDS_P2;PMS_P1;PMS_P2;Temp;Humidity;BMP_temperature;BMP_pressure;BME280_temperature;BME280_humidity;BME280_pressure;Samples;Min_cycle;Max_cycle;Signal;HPM_P1;HPM_P2
2023/02/03 00:02:10;;;;;;;1.95;1.85;;;7.30;98.40;;;;;;5050877;28;20277;-74
2023/02/03 00:04:37;;;;;;;1.63;1.52;;;7.20;98.70;;;;;;5032192;28;20309;-73
2023/02/03 00:07:04;;;;;;;1.65;1.60;;;7.10;98.60;;;;;;5056917;28;20405;-73
2023/02/03 00:09:31;;;;;;;1.65;1.63;;;7.10;98.50;;;;;;5049335;28;20306;-74
2023/02/03 00:11:59;;;;;;;1.85;1.75;;;7.20;98.30;;;;;;5057606;28;20917;-74
2023/02/03 00:14:26;;;;;;;1.60;1.50;;;7.20;98.70;;;;;;5045502;28;20645;-74
2023/02/03 00:16:53;;;;;;;1.63;1.52;;;7.00;99.40;;;;;;5053228;28;20310;-74
2023/02/03 00:19:20;;;;;;;1.70;1.70;;;6.80;99.90;;;;;;5053652;28;20762;-74
2023/02/03 00:21:47;;;;;;;2.58;1.63;;;6.60;99.90;;;;;;5057631;28;20226;-72
2023/02/03 00:24:14;;;;;;;1.73;1.67;;;6.50;99.90;;;;;;5054775;28;20227;-74
2023/02/03 00:26:42;;;;;;;1.60;1.60;;;6.50;99.90;;;;;;5051454;28;20293;-73
2023/02/03 00:29:12;;;;;;;1.30;1.30;;;6.60;99.90;;;;;;5057303;28;20195;-75
2023/02/03 00:31:39;;;;;;;1.80;1.70;;;6.60;99.90;;;;;;5054605;28;20311;-73
2023/02/03 00:34:07;;;;;;;1.70;1.60;;;6.60;99.90;;;;;;5035357;28;20206;-72
2023/02/03 00:36:34;;;;;;;1.60;1.60;;;6.50;99.90;;;;;;5055231;28;20313;-73
2023/02/03 00:39:01;;;;;;;1.70;1.67;;;6.40;99.90;;;;;;5057057;28;20868;-72
2023/02/03 00:41:30;;;;;;;1.85;1.85;;;6.30;99.90;;;;;;5047745;28;20305;-72
2023/02/03 00:43:57;;;;;;;1.90;1.80;;;6.20;99.90;;;;;;5049314;28;20727;-74
2023/02/03 00:46:26;;;;;;;2.40;1.90;;;6.00;99.90;;;;;;5050215;28;20289;-73
2023/02/03 00:48:53;;;;;;;1.70;1.60;;;6.00;99.90;;;;;;5050744;28;20716;-73
2023/02/03 00:51:20;;;;;;;1.88;1.77;;;5.90;99.90;;;;;;5052463;28;20297;-73
2023/02/03 00:53:47;;;;;;;2.10;2.00;;;5.90;99.90;;;;;;5052903;28;20210;-73
2023/02/03 00:56:15;;;;;;;1.58;1.58;;;5.90;99.90;;;;;;5055880;28;20329;-73
2023/02/03 00:58:42;;;;;;;1.95;1.58;;;5.90;99.90;;;;;;5056971;28;20278;-71
2023/02/03 01:01:09;;;;;;;2.00;1.90;;;5.90;99.90;;;;;;5049989;28;20674;-73
2023/02/03 01:03:38;;;;;;;1.90;1.80;;;5.80;99.90;;;;;;5056980;28;20374;-73
2023/02/03 01:06:14;;;;;;;1.88;1.77;;;5.80;99.90;;;;;;5055515;28;20321;-73
2023/02/03 01:08:41;;;;;;;2.22;2.13;;;5.80;99.90;;;;;;5055747;28;20277;-73
2023/02/03 01:11:10;;;;;;;2.20;2.10;;;5.70;99.90;;;;;;5051699;28;20309;-72
2023/02/03 01:13:37;;;;;;;2.20;2.10;;;5.70;99.90;;;;;;5035415;28;20203;-73
2023/02/03 01:16:07;;;;;;;1.58;1.58;;;5.70;99.90;;;;;;5054612;28;20308;-74
2023/02/03 01:18:34;;;;;;;2.10;2.00;;;5.70;99.90;;;;;;5052363;28;20281;-73
2023/02/03 01:21:07;;;;;;;2.20;2.10;;;5.70;99.90;;;;;;5037229;28;20224;-73
2023/02/03 01:23:35;;;;;;;1.80;1.73;;;5.70;99.90;;;;;;5053314;28;20253;-73
2023/02/03 01:26:06;;;;;;;2.20;2.10;;;5.70;99.90;;;;;;5047683;28;21920;-72
2023/02/03 01:28:33;;;;;;;1.75;1.75;;;5.60;99.90;;;;;;5032391;28;20203;-73
2023/02/03 01:31:10;;;;;;;1.88;1.88;;;5.70;99.90;;;;;;5054954;28;20301;-73
2023/02/03 01:33:39;;;;;;;1.90;1.90;;;5.70;99.90;;;;;;5052480;28;20281;-72
2023/02/03 01:36:09;;;;;;;2.00;1.90;;;5.70;99.90;;;;;;5012435;28;20222;-73
2023/02/03 01:38:37;;;;;;;1.73;1.73;;;5.70;99.90;;;;;;5058633;28;20286;-72
2023/02/03 01:41:07;;;;;;;1.88;1.83;;;5.70;99.90;;;;;;5059518;28;20305;-72
2023/02/03 01:43:36;;;;;;;1.70;1.70;;;5.80;99.90;;;;;;5052978;28;20253;-74
2023/02/03 01:46:07;;;;;;;2.13;2.03;;;5.80;99.90;;;;;;5056361;28;20311;-73
2023/02/03 01:48:35;;;;;;;3.42;1.88;;;5.70;99.90;;;;;;5051035;28;20308;-73
2023/02/03 01:51:04;;;;;;;1.83;1.83;;;5.60;99.90;;;;;;5034055;28;20297;-73
2023/02/03 01:53:33;;;;;;;2.10;2.00;;;5.60;99.90;;;;;;5054119;28;20945;-73
2023/02/03 01:56:03;;;;;;;1.80;1.80;;;5.50;99.90;;;;;;5058765;28;20309;-73
2023/02/03 01:58:34;;;;;;;1.77;1.77;;;5.50;99.90;;;;;;5062095;28;20194;-73
2023/02/03 02:01:01;;;;;;;2.00;1.90;;;5.50;99.90;;;;;;5035159;28;20893;-73
2023/02/03 02:03:34;;;;;;;1.60;1.60;;;5.50;99.90;;;;;;5058176;28;20305;-73
2023/02/03 02:06:05;;;;;;;1.90;1.90;;;5.60;99.90;;;;;;5054756;28;20333;-73
2023/02/03 02:08:35;;;;;;;1.80;1.80;;;5.60;99.90;;;;;;5040642;28;20218;-73
2023/02/03 02:11:02;;;;;;;2.13;2.03;;;5.60;99.90;;;;;;5037711;28;20607;-73
2023/02/03 02:13:33;;;;;;;1.83;1.83;;;5.60;99.90;;;;;;5052498;28;20287;-73
2023/02/03 02:16:08;;;;;;;2.25;2.15;;;5.60;99.90;;;;;;5053810;28;20277;-73
2023/02/03 02:18:46;;;;;;;1.73;1.73;;;5.50;99.90;;;;;;5051754;28;20731;-73
2023/02/03 02:21:51;;;;;;;1.50;1.50;;;5.60;99.90;;;;;;5033446;28;20214;-72
2023/02/03 02:24:51;;;;;;;1.83;1.83;;;5.60;99.90;;;;;;5048542;28;20758;-72
2023/02/03 02:27:56;;;;;;;1.95;1.90;;;5.60;99.90;;;;;;5030052;28;20225;-73
2023/02/03 02:30:59;;;;;;;2.00;1.90;;;5.60;99.90;;;;;;5049968;28;20264;-73
2023/02/03 02:33:37;;;;;;;1.88;1.88;;;5.60;99.90;;;;;;5056772;28;20230;-72
2023/02/03 02:36:14;;;;;;;2.10;2.00;;;5.60;99.90;;;;;;5054153;28;20333;-73
2023/02/03 02:38:50;;;;;;;1.88;1.88;;;5.50;99.90;;;;;;5054380;28;20281;-72
2023/02/03 02:41:22;;;;;;;2.10;2.00;;;5.60;99.90;;;;;;5056305;28;20326;-72
2023/02/03 02:43:55;;;;;;;1.90;1.90;;;5.50;99.90;;;;;;5047726;28;20643;-73
2023/02/03 02:46:27;;;;;;;1.77;1.77;;;5.60;99.90;;;;;;5051866;28;20337;-73
2023/02/03 02:49:01;;;;;;;1.75;1.75;;;5.60;99.90;;;;;;5061035;28;20220;-72
2023/02/03 02:51:30;;;;;;;2.03;1.92;;;5.60;99.90;;;;;;5049545;28;20306;-73
2023/02/03 02:54:00;;;;;;;1.98;1.98;;;5.60;99.90;;;;;;5059387;28;20301;-73
2023/02/03 02:56:28;;;;;;;1.83;1.83;;;5.60;99.90;;;;;;5063851;28;20247;-73
2023/02/03 02:58:57;;;;;;;1.77;1.77;;;5.60;99.90;;;;;;5058638;28;20274;-73
2023/02/03 03:01:24;;;;;;;1.98;1.88;;;5.60;99.90;;;;;;5035926;28;20211;-73
2023/02/03 03:03:52;;;;;;;1.35;1.35;;;5.60;99.90;;;;;;5055352;28;20284;-73
2023/02/03 03:06:25;;;;;;;1.52;1.52;;;5.60;99.90;;;;;;5053817;28;20294;-73
2023/02/03 03:08:57;;;;;;;1.42;1.42;;;5.50;99.90;;;;;;5051688;28;20341;-73
2023/02/03 03:11:26;;;;;;;1.70;1.70;;;5.50;99.90;;;;;;5023759;28;20215;-75
2023/02/03 03:13:55;;;;;;;1.83;1.83;;;5.40;99.90;;;;;;5054451;28;20294;-72
2023/02/03 03:16:25;;;;;;;1.70;1.60;;;5.40;99.90;;;;;;5048820;28;20759;-72
2023/02/03 03:18:56;;;;;;;1.98;1.90;;;5.40;99.90;;;;;;5045261;28;20286;-72
2023/02/03 03:21:28;;;;;;;1.98;1.98;;;5.40;99.90;;;;;;5047449;28;20307;-73
2023/02/03 03:24:00;;;;;;;2.10;2.00;;;5.40;99.90;;;;;;5048176;28;20222;-72
2023/02/03 03:26:32;;;;;;;1.85;1.85;;;5.40;99.90;;;;;;5048873;28;20250;-73
2023/02/03 03:29:07;;;;;;;1.80;1.80;;;5.40;99.90;;;;;;5047698;28;20203;-72
2023/02/03 03:31:34;;;;;;;1.80;1.80;;;5.40;99.90;;;;;;5046919;28;20306;-72
2023/02/03 03:34:01;;;;;;;2.10;1.90;;;5.40;99.90;;;;;;5034686;28;20289;-72
2023/02/03 03:36:33;;;;;;;1.95;1.85;;;5.40;99.90;;;;;;5030784;28;20232;-73
2023/02/03 03:39:05;;;;;;;1.80;1.80;;;5.40;99.90;;;;;;5035776;28;21563;-72
2023/02/03 03:41:39;;;;;;;1.83;1.83;;;5.40;99.90;;;;;;5028323;28;20226;-72
2023/02/03 03:44:12;;;;;;;1.80;1.80;;;5.30;99.90;;;;;;5041959;28;20758;-72
2023/02/03 03:46:44;;;;;;;1.65;1.65;;;5.30;99.90;;;;;;5029930;28;20218;-72
2023/02/03 03:49:13;;;;;;;1.90;1.90;;;5.30;99.90;;;;;;5045893;28;20282;-72
2023/02/03 03:51:46;;;;;;;1.65;1.65;;;5.20;99.90;;;;;;5027944;28;20195;-72
2023/02/03 03:54:16;;;;;;;1.55;1.55;;;5.20;99.90;;;;;;5047668;28;20290;-72
2023/02/03 03:56:49;;;;;;;1.90;1.80;;;5.20;99.90;;;;;;5053797;28;20256;-73
2023/02/03 03:59:19;;;;;;;1.70;1.70;;;5.20;99.90;;;;;;5051615;28;20805;-74
2023/02/03 04:01:47;;;;;;;1.95;1.95;;;5.20;99.90;;;;;;5052045;28;20222;-73
2023/02/03 04:04:16;;;;;;;2.20;2.10;;;5.20;99.90;;;;;;5052388;28;20644;-73
2023/02/03 04:06:45;;;;;;;1.70;1.70;;;5.20;99.90;;;;;;5053861;28;20632;-73
2023/02/03 04:09:12;;;;;;;1.58;1.50;;;5.30;99.90;;;;;;5045429;28;20286;-73
2023/02/03 04:14:23;;;;;;;2.05;1.95;;;5.10;99.90;;;;;;5053218;28;20270;-74
2023/02/03 04:16:50;;;;;;;1.90;1.85;;;5.00;99.90;;;;;;5035592;28;20306;-73
2023/02/03 04:19:17;;;;;;;1.60;1.60;;;4.90;99.90;;;;;;5050186;28;20278;-73
2023/02/03 04:21:45;;;;;;;1.73;1.63;;;4.80;99.90;;;;;;5045580;28;20286;-73
2023/02/03 04:24:12;;;;;;;1.80;1.80;;;4.80;99.90;;;;;;5042784;28;20294;-73
2023/02/03 04:26:40;;;;;;;1.80;1.77;;;4.80;99.90;;;;;;5052559;28;20297;-72
2023/02/03 04:29:07;;;;;;;1.60;1.60;;;4.80;99.90;;;;;;5033698;28;20837;-72
2023/02/03 04:31:34;;;;;;;1.92;1.92;;;4.80;99.90;;;;;;5049480;28;20485;-72
2023/02/03 04:34:01;;;;;;;2.33;2.22;;;4.80;99.90;;;;;;5033551;28;20289;-72
2023/02/03 04:36:29;;;;;;;2.00;2.00;;;4.80;99.90;;;;;;5019532;28;20226;-73
2023/02/03 04:38:57;;;;;;;2.20;2.10;;;4.80;99.90;;;;;;5050372;28;20317;-73
2023/02/03 04:41:24;;;;;;;2.17;2.08;;;4.70;99.90;;;;;;5054207;28;20294;-73
2023/02/03 04:43:51;;;;;;;1.95;1.92;;;4.70;99.90;;;;;;5047712;28;20226;-72
2023/02/03 04:46:18;;;;;;;2.20;2.10;;;4.70;99.90;;;;;;5055104;28;20361;-73
2023/02/03 04:48:45;;;;;;;2.03;1.92;;;4.70;99.90;;;;;;5055581;28;20675;-73
2023/02/03 04:51:12;;;;;;;2.08;1.98;;;4.60;99.90;;;;;;5048972;28;20306;-73
2023/02/03 04:53:39;;;;;;;1.92;1.92;;;4.60;99.90;;;;;;5050732;28;20281;-73
2023/02/03 04:56:08;;;;;;;2.22;2.13;;;4.60;99.90;;;;;;5055615;28;20301;-73
2023/02/03 04:58:36;;;;;;;2.13;2.03;;;4.60;99.90;;;;;;5052042;28;20363;-73
2023/02/03 05:01:07;;;;;;;2.00;1.90;;;4.60;99.90;;;;;;5052053;28;20327;-72
2023/02/03 05:03:34;;;;;;;2.63;2.53;;;4.60;99.90;;;;;;5050061;28;20213;-73
2023/02/03 05:06:02;;;;;;;1.90;1.80;;;4.50;99.90;;;;;;5049468;28;20316;-73
2023/02/03 05:08:29;;;;;;;2.20;2.10;;;4.50;99.90;;;;;;5031651;28;20203;-73
2023/02/03 05:10:56;;;;;;;1.98;1.98;;;4.50;99.90;;;;;;5053499;28;20227;-73
2023/02/03 05:13:24;;;;;;;2.13;2.05;;;4.40;99.90;;;;;;5052312;28;20620;-73
2023/02/03 05:15:51;;;;;;;2.50;2.40;;;4.40;99.90;;;;;;5053120;28;20305;-73
2023/02/03 05:18:18;;;;;;;1.95;1.90;;;4.40;99.90;;;;;;5035258;28;20222;-73
2023/02/03 05:20:45;;;;;;;2.47;2.38;;;4.30;99.90;;;;;;5051687;28;20329;-72
2023/02/03 05:23:13;;;;;;;2.40;2.30;;;4.30;99.90;;;;;;5050453;28;20281;-73
2023/02/03 05:25:39;;;;;;;2.05;1.95;;;4.20;99.90;;;;;;5030456;28;20313;-73
2023/02/03 05:28:07;;;;;;;2.00;1.90;;;4.20;99.90;;;;;;5051081;28;20298;-71
2023/02/03 05:30:35;;;;;;;2.40;2.30;;;4.10;99.90;;;;;;5048887;28;20316;-74
2023/02/03 05:33:02;;;;;;;2.20;2.10;;;4.00;99.90;;;;;;5049534;28;20285;-73
2023/02/03 05:35:29;;;;;;;2.47;2.38;;;4.00;99.90;;;;;;5049098;28;20219;-73
2023/02/03 05:37:56;;;;;;;2.70;2.60;;;4.00;99.90;;;;;;5052051;28;20704;-73
2023/02/03 05:43:08;;;;;;;2.50;2.40;;;4.10;99.90;;;;;;5044163;28;20218;-73
2023/02/03 05:45:36;;;;;;;2.25;2.15;;;4.10;99.90;;;;;;5053860;28;20306;-72
2023/02/03 05:48:03;;;;;;;2.30;2.20;;;4.10;99.90;;;;;;5050605;28;20325;-72
2023/02/03 05:50:32;;;;;;;2.95;2.85;;;4.20;99.90;;;;;;5047410;28;20318;-73
2023/02/03 05:52:59;;;;;;;2.42;2.33;;;4.20;99.90;;;;;;5050706;28;20260;-72
2023/02/03 05:55:27;;;;;;;2.40;2.30;;;4.30;99.90;;;;;;5048240;28;20632;-73
2023/02/03 05:57:54;;;;;;;2.60;2.50;;;4.20;99.90;;;;;;5048849;28;20676;-71
2023/02/03 06:00:23;;;;;;;2.38;2.28;;;4.30;99.90;;;;;;5047370;28;20289;-72
2023/02/03 06:02:54;;;;;;;2.30;2.20;;;4.20;99.90;;;;;;5056007;28;20286;-71
2023/02/03 06:05:21;;;;;;;2.50;2.40;;;4.20;99.90;;;;;;5028295;28;20298;-73
2023/02/03 06:07:48;;;;;;;2.30;2.20;;;4.20;99.90;;;;;;5051593;28;20668;-72
2023/02/03 06:10:16;;;;;;;2.50;2.40;;;4.10;99.90;;;;;;5050770;28;20293;-72
2023/02/03 06:12:44;;;;;;;2.50;2.40;;;4.10;99.90;;;;;;5045878;28;20364;-73
2023/02/03 06:15:11;;;;;;;2.30;2.20;;;4.00;99.90;;;;;;5047993;28;20301;-71
2023/02/03 06:17:38;;;;;;;2.25;2.15;;;4.00;99.90;;;;;;5044047;28;20314;-73
2023/02/03 06:20:09;;;;;;;2.50;2.40;;;4.00;99.90;;;;;;5051262;28;20296;-73
2023/02/03 06:22:36;;;;;;;2.33;2.22;;;3.90;99.90;;;;;;5052219;28;20286;-73
2023/02/03 06:25:03;;;;;;;2.30;2.13;;;3.80;99.90;;;;;;5047975;28;20293;-73
2023/02/03 06:27:31;;;;;;;2.45;2.35;;;3.90;99.90;;;;;;5050396;28;20700;-73
2023/02/03 06:29:58;;;;;;;2.50;2.40;;;3.90;99.90;;;;;;5051425;28;20226;-73
2023/02/03 06:32:25;;;;;;;2.60;2.50;;;3.90;99.90;;;;;;5045418;28;20287;-72
2023/02/03 06:34:52;;;;;;;2.50;2.40;;;3.90;99.90;;;;;;5041072;28;20293;-73
2023/02/03 06:37:20;;;;;;;2.17;2.08;;;3.90;99.90;;;;;;5044348;28;20398;-73
2023/02/03 06:39:47;;;;;;;2.22;2.13;;;3.90;99.90;;;;;;5045840;28;20302;-73
2023/02/03 06:42:15;;;;;;;2.00;1.90;;;4.00;99.90;;;;;;5028444;28;20199;-73
2023/02/03 06:44:42;;;;;;;2.85;2.50;;;4.00;99.90;;;;;;5045611;28;20309;-73
2023/02/03 06:47:09;;;;;;;2.60;2.50;;;4.00;99.90;;;;;;5031015;28;20252;-73
2023/02/03 06:49:36;;;;;;;2.60;2.50;;;3.90;99.90;;;;;;5027594;28;20214;-73
2023/02/03 06:52:03;;;;;;;2.97;2.80;;;3.90;99.90;;;;;;5026020;28;20731;-73
2023/02/03 06:54:32;;;;;;;2.60;2.50;;;3.80;99.90;;;;;;5047666;28;20345;-73
2023/02/03 06:56:59;;;;;;;2.80;2.60;;;3.80;99.90;;;;;;5048760;28;20313;-72
2023/02/03 06:59:26;;;;;;;2.88;2.67;;;3.70;99.90;;;;;;5047157;28;20305;-72
2023/02/03 07:01:53;;;;;;;2.72;2.63;;;3.70;99.90;;;;;;5048435;28;20294;-73
2023/02/03 07:04:20;;;;;;;2.60;2.50;;;3.70;99.90;;;;;;5048234;28;20195;-73
2023/02/03 07:06:47;;;;;;;2.40;2.30;;;3.80;99.90;;;;;;5045764;28;20254;-73
2023/02/03 07:09:15;;;;;;;2.55;2.45;;;3.80;99.90;;;;;;5049222;28;20281;-73
2023/02/03 07:11:43;;;;;;;2.50;2.40;;;3.80;99.90;;;;;;5046710;28;20944;-73
2023/02/03 07:14:10;;;;;;;2.83;2.72;;;3.90;99.90;;;;;;5052848;28;20273;-73
2023/02/03 07:16:37;;;;;;;2.50;2.40;;;3.90;99.90;;;;;;5031845;28;20321;-72
2023/02/03 07:19:05;;;;;;;2.38;2.28;;;4.00;99.90;;;;;;5053365;28;20297;-72
2023/02/03 07:21:33;;;;;;;2.47;2.38;;;4.00;99.90;;;;;;5030187;28;21076;-72
2023/02/03 07:24:01;;;;;;;2.38;2.28;;;4.00;99.90;;;;;;5052329;28;20286;-72
2023/02/03 07:26:28;;;;;;;2.75;2.55;;;4.00;99.90;;;;;;5023889;28;20230;-71
2023/02/03 07:28:58;;;;;;;2.50;2.40;;;4.00;99.90;;;;;;5055973;28;20643;-73
2023/02/03 07:31:25;;;;;;;2.45;2.35;;;4.00;99.90;;;;;;5052856;28;20217;-72
2023/02/03 07:33:52;;;;;;;2.47;2.38;;;4.00;99.90;;;;;;5043327;28;20222;-73
2023/02/03 07:36:20;;;;;;;2.38;2.28;;;4.00;99.90;;;;;;5049617;28;20309;-73
2023/02/03 07:38:47;;;;;;;2.50;2.40;;;4.00;99.90;;;;;;5058456;28;20307;-73
2023/02/03 07:41:14;;;;;;;2.72;2.63;;;4.10;99.90;;;;;;5051258;28;20321;-73
2023/02/03 07:43:41;;;;;;;2.72;2.63;;;4.10;99.90;;;;;;5050180;28;20294;-73
2023/02/03 07:46:09;;;;;;;2.83;2.63;;;4.10;99.90;;;;;;5049976;28;20302;-73
2023/02/03 07:48:36;;;;;;;3.45;3.15;;;4.40;99.90;;;;;;5050671;28;20277;-73
2023/02/03 07:51:04;;;;;;;3.00;2.80;;;5.30;99.90;;;;;;5054543;28;20318;-73
2023/02/03 07:53:31;;;;;;;3.42;3.22;;;6.30;99.90;;;;;;5050997;28;20317;-72
2023/02/03 07:56:00;;;;;;;3.08;2.88;;;7.20;99.90;;;;;;5054970;28;20301;-73
2023/02/03 07:58:27;;;;;;;3.17;2.97;;;7.90;99.90;;;;;;5050535;28;20218;-73
2023/02/03 08:00:55;;;;;;;2.75;2.60;;;8.40;99.90;;;;;;5044381;28;20243;-73
2023/02/03 08:03:24;;;;;;;2.80;2.50;;;8.50;99.90;;;;;;5056089;28;20629;-73
2023/02/03 08:05:52;;;;;;;3.42;2.70;;;8.70;99.90;;;;;;5049318;28;20297;-73
2023/02/03 08:08:19;;;;;;;2.65;2.38;;;9.20;99.90;;;;;;5043885;28;20211;-74
2023/02/03 08:10:46;;;;;;;2.88;2.67;;;9.60;99.90;;;;;;5029642;28;20223;-73
2023/02/03 08:13:14;;;;;;;2.25;2.15;;;10.20;99.90;;;;;;5032837;28;20195;-74
2023/02/03 08:15:41;;;;;;;2.40;2.30;;;10.80;99.90;;;;;;5045921;28;20305;-74
2023/02/03 08:18:08;;;;;;;1.90;1.80;;;11.20;99.90;;;;;;5050742;28;20305;-74
2023/02/03 08:20:37;;;;;;;2.30;2.20;;;11.40;99.90;;;;;;5052812;28;20608;-71
2023/02/03 08:23:04;;;;;;;2.28;2.17;;;11.70;99.90;;;;;;5038167;28;20228;-72
2023/02/03 08:25:32;;;;;;;1.90;1.80;;;11.90;99.90;;;;;;5047793;28;20314;-71
2023/02/03 08:27:59;;;;;;;2.95;2.10;;;12.00;99.90;;;;;;5045903;28;20305;-73
2023/02/03 08:30:26;;;;;;;2.42;2.22;;;11.90;99.90;;;;;;5049309;28;20298;-73
2023/02/03 08:32:53;;;;;;;3.05;2.25;;;12.20;99.90;;;;;;5053249;28;20286;-72
2023/02/03 08:35:20;;;;;;;2.05;1.95;;;12.60;99.90;;;;;;5056386;28;20301;-72
2023/02/03 08:37:49;;;;;;;2.47;2.25;;;12.90;99.90;;;;;;5046074;28;20337;-72
2023/02/03 08:40:17;;;;;;;2.25;2.15;;;13.30;99.90;;;;;;5026039;28;20262;-73
2023/02/03 08:42:44;;;;;;;2.05;1.90;;;13.40;99.30;;;;;;5033975;28;20850;-73
2023/02/03 08:45:11;;;;;;;2.05;1.95;;;13.60;99.50;;;;;;5052764;28;20314;-73
2023/02/03 08:47:38;;;;;;;2.33;2.22;;;13.80;98.70;;;;;;5047641;28;20381;-75
2023/02/03 08:50:06;;;;;;;2.50;2.30;;;14.00;98.50;;;;;;5046077;28;20240;-74
2023/02/03 08:52:33;;;;;;;2.22;2.03;;;14.30;98.30;;;;;;5047205;28;20305;-74
2023/02/03 08:55:02;;;;;;;2.60;2.40;;;14.50;97.90;;;;;;5045875;28;20341;-73
2023/02/03 08:57:33;;;;;;;2.50;2.30;;;14.80;97.60;;;;;;5047314;28;20254;-73
2023/02/03 09:00:00;;;;;;;2.30;2.10;;;14.90;96.40;;;;;;5029222;28;20585;-73
2023/02/03 09:02:27;;;;;;;2.25;2.10;;;15.10;96.10;;;;;;5049734;28;20269;-73
2023/02/03 09:04:54;;;;;;;2.83;2.03;;;15.20;96.30;;;;;;5046751;28;20607;-72
2023/02/03 09:07:22;;;;;;;2.70;2.50;;;15.50;96.00;;;;;;5047397;28;20297;-73
2023/02/03 09:09:49;;;;;;;3.25;2.92;;;15.80;95.40;;;;;;5026886;28;20233;-73
2023/02/03 09:12:17;;;;;;;2.33;2.13;;;16.00;95.10;;;;;;5049172;28;20314;-73
2023/02/03 09:14:44;;;;;;;2.15;1.92;;;16.10;94.60;;;;;;5050435;28;20250;-72
2023/02/03 09:17:11;;;;;;;1.88;1.70;;;16.10;93.60;;;;;;5048696;28;20799;-74
2023/02/03 09:19:38;;;;;;;2.33;2.13;;;16.10;93.90;;;;;;5038696;28;20314;-74
2023/02/03 09:22:05;;;;;;;2.17;1.98;;;16.10;93.30;;;;;;5047975;28;20279;-73
2023/02/03 09:24:32;;;;;;;2.47;2.22;;;16.20;93.10;;;;;;5045099;28;20653;-74
2023/02/03 09:27:00;;;;;;;1.63;1.52;;;16.50;92.40;;;;;;5048238;28;20302;-73
2023/02/03 09:29:29;;;;;;;2.30;2.10;;;16.30;92.20;;;;;;5046734;28;20191;-74
2023/02/03 09:31:56;;;;;;;1.90;1.80;;;16.60;92.40;;;;;;5046994;28;20652;-74
2023/02/03 09:34:23;;;;;;;2.40;2.00;;;16.70;91.90;;;;;;5047284;28;20342;-73
2023/02/03 09:36:50;;;;;;;2.28;2.08;;;17.20;91.60;;;;;;5044542;28;20311;-73
2023/02/03 09:39:17;;;;;;;1.85;1.75;;;18.10;90.50;;;;;;5052939;28;20788;-75
2023/02/03 09:42:31;;;;;;;2.33;2.05;;;19.30;85.90;;;;;;5051066;28;20277;-74
2023/02/03 09:45:10;;;;;;;2.28;1.88;;;20.60;77.40;;;;;;4956842;28;20674;-74
2023/02/03 09:47:41;;;;;;;1.70;1.60;;;20.70;75.40;;;;;;4950686;28;20339;-75
2023/02/03 09:50:14;;;;;;;1.70;1.60;;;20.50;76.00;;;;;;5013757;28;20299;-74
2023/02/03 09:52:43;;;;;;;2.97;1.38;;;19.90;76.80;;;;;;5042388;28;20293;-74
2023/02/03 09:55:20;;;;;;;1.75;1.65;;;19.00;78.50;;;;;;5047784;28;20294;-74
2023/02/03 09:57:55;;;;;;;1.30;1.20;;;18.20;79.30;;;;;;5047858;28;20305;-74
2023/02/03 10:00:27;;;;;;;1.77;1.67;;;17.30;81.70;;;;;;5030186;28;20646;-74
2023/02/03 10:03:00;;;;;;;1.55;1.45;;;16.80;83.50;;;;;;5032804;28;20278;-73
2023/02/03 10:05:37;;;;;;;1.60;1.50;;;17.10;84.40;;;;;;5048238;28;20760;-73
2023/02/03 10:08:14;;;;;;;1.73;1.63;;;17.20;84.20;;;;;;5045309;28;20314;-73
2023/02/03 10:10:44;;;;;;;1.50;1.40;;;17.30;84.10;;;;;;5042409;28;20313;-73
2023/02/03 10:13:25;;;;;;;1.75;1.60;;;17.40;83.90;;;;;;5041313;28;20290;-74
2023/02/03 10:16:31;;;;;;;1.67;1.58;;;17.70;83.10;;;;;;5043978;28;20293;-74
2023/02/03 10:19:02;;;;;;;2.20;1.70;;;17.80;80.30;;;;;;5050168;28;20310;-73
2023/02/03 10:21:36;;;;;;;3.70;1.80;;;17.60;80.20;;;;;;5042816;28;20290;-74
2023/02/03 10:24:11;;;;;;;1.55;1.45;;;17.30;82.50;;;;;;5039691;28;20745;-76
2023/02/03 10:26:40;;;;;;;1.90;1.80;;;17.20;83.50;;;;;;5040623;28;20389;-76
2023/02/03 10:29:18;;;;;;;1.90;1.80;;;17.20;84.20;;;;;;5039957;28;20290;-76
2023/02/03 10:31:48;;;;;;;2.00;1.88;;;17.20;83.60;;;;;;5039478;28;20327;-76
2023/02/03 10:34:16;;;;;;;1.92;1.83;;;17.40;83.20;;;;;;5052520;28;20191;-76
2023/02/03 10:36:54;;;;;;;1.83;1.70;;;17.50;83.80;;;;;;5054056;28;20258;-74
2023/02/03 10:39:30;;;;;;;2.10;2.00;;;17.50;82.60;;;;;;5043581;28;20203;-75
2023/02/03 10:41:57;;;;;;;2.30;2.10;;;17.40;83.00;;;;;;5042589;28;20197;-76
2023/02/03 10:44:31;;;;;;;2.45;2.25;;;17.30;84.00;;;;;;5040735;28;20290;-76
2023/02/03 10:47:00;;;;;;;2.63;1.98;;;17.10;84.40;;;;;;5041261;28;20348;-76
2023/02/03 10:49:28;;;;;;;2.47;2.28;;;17.30;84.20;;;;;;5045027;28;20277;-76
2023/02/03 10:52:01;;;;;;;2.70;2.30;;;17.30;83.60;;;;;;5049015;28;20207;-73
2023/02/03 10:54:31;;;;;;;2.53;2.33;;;17.20;83.90;;;;;;5043182;28;20195;-73
2023/02/03 10:57:03;;;;;;;2.50;2.30;;;17.20;85.00;;;;;;5048602;28;20218;-74
2023/02/03 10:59:33;;;;;;;2.40;2.20;;;17.20;84.20;;;;;;5047844;28;20532;-74
2023/02/03 11:02:08;;;;;;;2.17;1.98;;;17.10;83.80;;;;;;5054242;28;20229;-74
2023/02/03 11:04:35;;;;;;;3.58;2.13;;;17.00;83.90;;;;;;5048979;28;20253;-75
2023/02/03 11:07:06;;;;;;;2.33;2.13;;;17.10;83.80;;;;;;5048198;28;20984;-75
2023/02/03 11:09:36;;;;;;;2.60;2.08;;;17.10;83.10;;;;;;5044997;28;20699;-75
2023/02/03 11:12:08;;;;;;;2.08;1.85;;;17.20;82.60;;;;;;5044700;28;20202;-76
2023/02/03 11:14:39;;;;;;;3.13;2.05;;;17.20;82.70;;;;;;5040469;28;20219;-75
2023/02/03 11:17:10;;;;;;;2.53;2.33;;;17.10;82.80;;;;;;5042158;28;20725;-76
2023/02/03 11:19:39;;;;;;;2.00;1.90;;;17.10;81.20;;;;;;5030332;28;20301;-74
2023/02/03 11:22:06;;;;;;;3.63;1.50;;;16.90;81.60;;;;;;5042216;28;20201;-75
2023/02/03 11:24:39;;;;;;;1.58;1.48;;;16.50;81.80;;;;;;5030519;28;20219;-75
2023/02/03 11:27:10;;;;;;;2.35;1.88;;;16.10;82.50;;;;;;5048819;28;20300;-75
2023/02/03 11:29:40;;;;;;;1.73;1.63;;;16.10;83.40;;;;;;5048952;28;20742;-74
2023/02/03 11:32:18;;;;;;;1.30;1.30;;;16.20;82.90;;;;;;5050178;28;20286;-76
2023/02/03 11:34:49;;;;;;;2.45;1.67;;;16.10;82.50;;;;;;5042359;28;20254;-76
2023/02/03 11:37:32;;;;;;;3.28;1.88;;;15.80;83.60;;;;;;5043009;28;20697;-76
2023/02/03 11:40:27;;;;;;;1.75;1.65;;;15.70;83.80;;;;;;5049727;28;20301;-76
2023/02/03 11:43:05;;;;;;;2.45;1.70;;;15.90;82.20;;;;;;5049181;28;20621;-75
2023/02/03 11:45:40;;;;;;;2.67;1.70;;;16.10;82.60;;;;;;5047580;28;20305;-76
2023/02/03 11:48:18;;;;;;;1.85;1.42;;;16.30;82.70;;;;;;5048587;28;20771;-75
2023/02/03 11:50:49;;;;;;;3.78;1.85;;;16.30;81.60;;;;;;5041279;28;20218;-76
2023/02/03 11:53:30;;;;;;;1.92;1.63;;;16.10;81.50;;;;;;5022229;28;20285;-76
2023/02/03 11:56:15;;;;;;;1.70;1.60;;;16.10;82.60;;;;;;5045089;28;20310;-76
2023/02/03 11:59:05;;;;;;;1.98;1.70;;;16.40;82.20;;;;;;5041434;28;20274;-75
2023/02/03 12:01:56;;;;;;;1.55;1.45;;;16.50;82.00;;;;;;5039023;28;20310;-76
2023/02/03 12:04:53;;;;;;;3.28;1.60;;;16.60;81.40;;;;;;5024294;28;20229;-77
2023/02/03 12:07:39;;;;;;;1.60;1.50;;;16.70;80.80;;;;;;5035256;28;20329;-76
2023/02/03 12:10:21;;;;;;;3.85;1.50;;;16.90;80.60;;;;;;5051857;28;20297;-76
2023/02/03 12:12:54;;;;;;;1.30;1.20;;;17.10;81.00;;;;;;5046168;28;20795;-76
2023/02/03 12:15:48;;;;;;;1.73;1.63;;;17.10;80.80;;;;;;5052252;28;20259;-76
2023/02/03 12:18:32;;;;;;;1.85;1.55;;;17.10;78.90;;;;;;5030921;28;20276;-76
2023/02/03 12:21:11;;;;;;;2.20;1.58;;;17.20;80.00;;;;;;5042154;28;20249;-77
2023/02/03 12:23:49;;;;;;;1.80;1.70;;;17.10;79.90;;;;;;5049289;28;20199;-76
2023/02/03 12:26:22;;;;;;;1.70;1.60;;;17.00;80.20;;;;;;5029831;28;20317;-77
2023/02/03 12:28:56;;;;;;;2.25;1.90;;;16.80;80.30;;;;;;5043906;28;20285;-75
2023/02/03 12:31:30;;;;;;;1.88;1.77;;;16.70;80.60;;;;;;5045006;28;20314;-74
2023/02/03 12:34:05;;;;;;;1.52;1.42;;;16.80;80.60;;;;;;5022604;28;20289;-76
2023/02/03 12:36:40;;;;;;;2.08;1.42;;;16.60;79.90;;;;;;5049387;28;20226;-76
2023/02/03 12:39:14;;;;;;;1.63;1.50;;;16.50;80.00;;;;;;5047335;28;20204;-76
2023/02/03 12:41:45;;;;;;;1.52;1.42;;;16.50;80.60;;;;;;5032850;28;20293;-71
2023/02/03 12:44:18;;;;;;;1.60;1.38;;;16.80;80.50;;;;;;5047834;28;20658;-75
2023/02/03 12:46:51;;;;;;;2.08;1.45;;;16.90;80.10;;;;;;5045517;28;20311;-75
2023/02/03 12:49:30;;;;;;;1.50;1.40;;;16.70;78.80;;;;;;5052301;28;20199;-75
2023/02/03 12:52:04;;;;;;;1.40;1.30;;;16.40;78.40;;;;;;5045415;28;20291;-76
2023/02/03 12:54:39;;;;;;;2.30;1.63;;;16.40;78.90;;;;;;5031985;28;20229;-76
2023/02/03 12:57:16;;;;;;;1.40;1.30;;;16.40;76.60;;;;;;5047139;28;20309;-76
2023/02/03 12:59:51;;;;;;;1.38;1.27;;;16.40;78.20;;;;;;5045439;28;20310;-75
2023/02/03 13:02:25;;;;;;;1.45;1.35;;;16.50;78.10;;;;;;5045370;28;20282;-77
2023/02/03 13:04:54;;;;;;;1.42;1.30;;;16.80;76.80;;;;;;5049721;28;20316;-76
2023/02/03 13:07:31;;;;;;;1.40;1.30;;;16.80;76.90;;;;;;5049917;28;20310;-77
2023/02/03 13:10:04;;;;;;;1.67;1.17;;;16.90;76.00;;;;;;5039322;28;20223;-74
2023/02/03 13:12:33;;;;;;;1.40;1.30;;;16.80;76.00;;;;;;5050549;28;20210;-75
2023/02/03 13:15:17;;;;;;;1.63;1.38;;;16.70;76.30;;;;;;5048286;28;20786;-75
2023/02/03 13:17:50;;;;;;;1.48;1.38;;;16.30;74.00;;;;;;5033957;28;20215;-75